Time;durP1;ratioP1;P1;durP2;ratioP2;P2;SDS_P1;SDS_P2;PMS_P1;PMS_P2;Temp;Humidity;BMP_temperature;BMP_pressure;BME280_temperature;BME280_humidity;BME280_pressure;Samples;Min_cycle;Max_cycle;Signal;HPM_P1;HPM_P2
2024/03/27 00:00:11;;;;;;;15.18;6.78;;;;;;;8.00;79.41;93197.91;5103802;28;20050;-80
2024/03/27 00:02:37;;;;;;;11.88;6.60;;;;;;;8.03;79.19;93200.69;5103858;28;20097;-81
2024/03/27 00:05:06;;;;;;;13.23;7.50;;;;;;;8.06;79.07;93199.31;5103433;28;20043;-81
2024/03/27 00:07:31;;;;;;;15.60;8.07;;;;;;;8.10;79.49;93194.13;5103502;28;20208;-80
2024/03/27 00:09:56;;;;;;;11.27;6.75;;;;;;;8.13;79.79;93186.34;5103585;28;20050;-81
2024/03/27 00:12:22;;;;;;;11.00;6.63;;;;;;;8.14;80.26;93171.97;5103670;28;20028;-81
2024/03/27 00:14:47;;;;;;;12.48;6.43;;;;;;;8.18;79.67;93185.38;5103498;28;20223;-81
2024/03/27 00:17:13;;;;;;;11.50;6.50;;;;;;;8.22;79.46;93186.31;5103300;28;20377;-78
2024/03/27 00:19:39;;;;;;;13.45;6.72;;;;;;;8.21;79.43;93190.09;5103258;28;20091;-78
2024/03/27 00:22:04;;;;;;;12.27;7.10;;;;;;;8.26;79.26;93183.81;5103728;28;20035;-78
2024/03/27 00:24:31;;;;;;;14.07;7.40;;;;;;;8.29;79.46;93193.84;5103554;28;20207;-78
2024/03/27 00:26:57;;;;;;;12.88;7.60;;;;;;;8.24;79.48;93200.06;5103265;28;20032;-78
2024/03/27 00:29:22;;;;;;;12.95;7.45;;;;;;;8.18;79.39;93175.56;5103253;28;20030;-78
2024/03/27 00:31:49;;;;;;;14.88;8.57;;;;;;;8.10;79.62;93179.00;5103309;28;20054;-78
2024/03/27 00:34:15;;;;;;;14.20;8.35;;;;;;;8.15;80.36;93180.72;5103085;28;20145;-78
2024/03/27 00:36:41;;;;;;;12.57;7.53;;;;;;;8.15;80.62;93178.06;5103110;28;20089;-78
2024/03/27 00:39:06;;;;;;;22.23;8.18;;;;;;;8.11;80.41;93183.22;5103374;28;20024;-78
2024/03/27 00:41:32;;;;;;;13.40;8.18;;;;;;;8.14;80.29;93184.44;5103157;28;20137;-77
2024/03/27 00:43:57;;;;;;;15.18;8.82;;;;;;;8.14;80.28;93187.91;5103233;28;20314;-78
2024/03/27 00:46:23;;;;;;;14.55;7.95;;;;;;;8.13;80.03;93194.31;5103164;28;20073;-78
2024/03/27 00:48:48;;;;;;;15.52;7.72;;;;;;;8.10;80.90;93178.22;5102940;28;20222;-78
2024/03/27 00:51:13;;;;;;;15.85;8.02;;;;;;;8.05;81.11;93192.44;5103094;28;20086;-77
2024/03/27 00:53:39;;;;;;;14.50;8.30;;;;;;;7.97;82.04;93177.28;5085324;28;20016;-77
2024/03/27 00:56:04;;;;;;;15.15;8.57;;;;;;;7.91;82.60;93171.34;5103247;28;20061;-78
2024/03/27 00:58:30;;;;;;;17.48;8.98;;;;;;;7.89;82.83;93186.81;5103104;28;20039;-77
2024/03/27 01:00:57;;;;;;;15.68;8.73;;;;;;;7.86;82.64;93168.88;5103093;28;20040;-78
2024/03/27 01:03:26;;;;;;;23.13;9.27;;;;;;;7.85;82.60;93167.28;5102906;28;20027;-77
2024/03/27 01:05:51;;;;;;;16.35;8.55;;;;;;;7.87;82.72;93173.06;5102863;28;20027;-77
2024/03/27 01:08:17;;;;;;;19.25;8.93;;;;;;;7.87;83.17;93164.34;5103227;28;20196;-77
2024/03/27 01:10:44;;;;;;;19.55;9.88;;;;;;;7.87;83.44;93153.72;5103245;28;20034;-77
2024/03/27 01:13:09;;;;;;;18.55;8.77;;;;;;;7.89;83.62;93167.47;5103582;28;20050;-78
2024/03/27 01:15:38;;;;;;;16.52;8.57;;;;;;;7.90;83.44;93163.72;5103328;28;20091;-78
2024/03/27 01:18:04;;;;;;;15.02;8.75;;;;;;;7.89;83.16;93165.56;5103010;28;20241;-77
2024/03/27 01:20:30;;;;;;;13.60;7.68;;;;;;;7.86;82.88;93165.41;5101617;28;20043;-77
2024/03/27 01:22:56;;;;;;;19.08;8.50;;;;;;;7.87;83.12;93159.03;5103433;28;20026;-78
2024/03/27 01:25:22;;;;;;;15.50;8.93;;;;;;;7.91;82.97;93163.41;5103223;28;20102;-78
2024/03/27 01:27:48;;;;;;;14.55;7.90;;;;;;;7.98;83.03;93168.25;5084906;28;20101;-78
2024/03/27 01:30:13;;;;;;;16.02;7.97;;;;;;;8.00;82.64;93169.50;5103099;28;20027;-78
2024/03/27 01:32:39;;;;;;;18.50;7.78;;;;;;;8.04;82.11;93174.97;5087494;28;20020;-78
2024/03/27 01:35:04;;;;;;;13.95;7.72;;;;;;;8.06;81.87;93164.81;5106975;28;20027;-78
2024/03/27 01:37:30;;;;;;;12.90;7.57;;;;;;;8.07;81.59;93160.28;5107078;28;20032;-79
2024/03/27 01:39:55;;;;;;;16.13;8.20;;;;;;;8.09;81.75;93160.75;5089051;28;20024;-79
2024/03/27 01:42:21;;;;;;;15.15;7.55;;;;;;;8.12;82.06;93144.97;5088698;28;20023;-79
2024/03/27 01:44:46;;;;;;;18.20;7.75;;;;;;;8.14;81.84;93145.44;5106851;28;20039;-78
2024/03/27 01:47:12;;;;;;;11.27;7.10;;;;;;;8.14;81.88;93153.41;5106724;28;20191;-77
2024/03/27 01:49:39;;;;;;;12.20;7.65;;;;;;;8.17;82.02;93152.75;5106702;28;20020;-77
2024/03/27 01:52:06;;;;;;;17.25;8.00;;;;;;;8.17;82.15;93139.50;5106601;28;20353;-78
2024/03/27 01:54:31;;;;;;;13.45;8.27;;;;;;;8.16;81.94;93134.50;5106445;28;20361;-77
2024/03/27 01:56:58;;;;;;;17.98;7.85;;;;;;;8.16;82.42;93139.78;5106599;28;20269;-78
2024/03/27 01:59:25;;;;;;;20.00;8.70;;;;;;;8.17;82.27;93146.69;5106438;28;20027;-77
2024/03/27 02:01:51;;;;;;;14.20;7.55;;;;;;;8.21;82.03;93140.41;5106118;28;20069;-77
2024/03/27 02:04:17;;;;;;;14.50;7.32;;;;;;;8.19;81.42;93133.88;5106354;28;20035;-77
2024/03/27 02:06:42;;;;;;;12.27;7.00;;;;;;;8.17;81.07;93128.09;5106159;28;20015;-77
2024/03/27 02:09:08;;;;;;;13.18;7.78;;;;;;;8.16;81.12;93129.97;5106579;28;20027;-77
2024/03/27 02:11:34;;;;;;;15.90;8.50;;;;;;;8.18;81.07;93132.28;5106269;28;20060;-77
2024/03/27 02:13:59;;;;;;;15.18;7.78;;;;;;;8.17;81.41;93128.09;5106793;28;20322;-77
2024/03/27 02:16:24;;;;;;;15.30;7.75;;;;;;;8.20;81.59;93135.41;5106153;28;20123;-77
2024/03/27 02:18:51;;;;;;;17.27;8.20;;;;;;;8.21;81.70;93126.38;5106061;28;20032;-77
2024/03/27 02:21:24;;;;;;;19.73;8.27;;;;;;;8.21;82.18;93127.16;5106206;28;20058;-77
2024/03/27 02:24:19;;;;;;;12.30;7.43;;;;;;;8.18;82.08;93138.41;5106032;28;20086;-76
2024/03/27 02:26:46;;;;;;;14.38;7.93;;;;;;;8.17;82.18;93122.78;5106153;28;20027;-77
2024/03/27 02:29:11;;;;;;;16.35;8.27;;;;;;;8.16;81.85;93127.31;5106055;28;20020;-77
2024/03/27 02:31:37;;;;;;;14.07;7.20;;;;;;;8.14;81.46;93118.09;5105959;28;20091;-77
2024/03/27 02:34:03;;;;;;;13.25;8.25;;;;;;;8.12;81.42;93123.75;5106069;28;20035;-77
2024/03/27 02:36:29;;;;;;;14.23;8.30;;;;;;;8.14;81.48;93124.22;5105807;28;20330;-77
2024/03/27 02:38:54;;;;;;;14.55;8.52;;;;;;;8.16;81.74;93118.56;5105722;28;20028;-77
2024/03/27 02:41:19;;;;;;;16.45;8.88;;;;;;;8.16;81.91;93103.44;5105828;28;20032;-78
2024/03/27 02:43:45;;;;;;;17.08;9.07;;;;;;;8.18;81.93;93117.16;5087559;28;20028;-77
2024/03/27 02:46:10;;;;;;;16.48;9.13;;;;;;;8.19;82.07;93118.72;5105860;28;20253;-78
2024/03/27 02:48:36;;;;;;;17.75;9.63;;;;;;;8.18;82.01;93116.38;5105605;28;20081;-78
2024/03/27 02:51:02;;;;;;;19.98;9.32;;;;;;;8.17;82.43;93133.41;5105196;28;20445;-77
2024/03/27 02:53:27;;;;;;;17.98;9.52;;;;;;;8.16;82.50;93135.28;5105205;28;20087;-76
2024/03/27 02:55:53;;;;;;;15.30;9.02;;;;;;;8.17;82.65;93125.44;5104721;28;20028;-77
2024/03/27 02:58:18;;;;;;;16.73;9.02;;;;;;;8.19;82.74;93129.34;5104952;28;20052;-77
2024/03/27 03:00:45;;;;;;;16.92;10.02;;;;;;;8.18;82.64;93125.13;5104719;28;20378;-77
2024/03/27 03:03:14;;;;;;;17.33;10.50;;;;;;;8.18;82.68;93133.09;5086727;28;20241;-77
2024/03/27 03:05:40;;;;;;;14.27;9.05;;;;;;;8.10;82.97;93125.94;5105078;28;20024;-77
2024/03/27 03:08:05;;;;;;;19.33;10.15;;;;;;;8.11;82.69;93130.13;5104685;28;20028;-77
2024/03/27 03:10:31;;;;;;;18.30;8.98;;;;;;;8.07;82.59;93131.84;5105045;28;20028;-77
2024/03/27 03:12:57;;;;;;;18.33;9.85;;;;;;;8.04;82.68;93133.28;5105187;28;20261;-77
2024/03/27 03:15:23;;;;;;;15.85;9.70;;;;;;;8.02;82.60;93132.81;5105049;28;20036;-77
2024/03/27 03:17:48;;;;;;;15.82;9.15;;;;;;;7.88;82.96;93115.50;5104477;28;20090;-77
2024/03/27 03:20:14;;;;;;;16.85;9.73;;;;;;;7.89;83.23;93131.09;5104378;28;20032;-76
2024/03/27 03:22:40;;;;;;;16.27;10.00;;;;;;;7.91;83.66;93128.13;5086571;28;20050;-78
2024/03/27 03:25:06;;;;;;;16.02;9.80;;;;;;;7.91;83.88;93120.16;5104440;28;20020;-77
2024/03/27 03:27:32;;;;;;;19.55;10.48;;;;;;;7.91;84.00;93130.78;5104306;28;20226;-78
2024/03/27 03:29:58;;;;;;;17.92;10.73;;;;;;;7.95;83.95;93134.38;5104418;28;20019;-79
2024/03/27 03:32:23;;;;;;;17.15;9.52;;;;;;;7.91;84.21;93120.16;5104413;28;20311;-79
2024/03/27 03:34:50;;;;;;;19.55;10.70;;;;;;;7.94;84.06;93124.84;5104285;28;20028;-79
2024/03/27 03:37:15;;;;;;;17.90;10.85;;;;;;;7.96;83.93;93127.97;5104273;28;20023;-79
2024/03/27 03:39:40;;;;;;;20.38;10.30;;;;;;;7.97;84.23;93132.94;5104014;28;20020;-79
2024/03/27 03:42:06;;;;;;;22.33;11.15;;;;;;;7.99;84.11;93124.69;5103689;28;20028;-78
2024/03/27 03:44:31;;;;;;;17.70;11.43;;;;;;;8.00;84.36;93144.84;5103717;28;20123;-78
2024/03/27 03:46:56;;;;;;;17.95;11.00;;;;;;;8.02;84.63;93129.38;5103802;28;20030;-81
2024/03/27 03:49:22;;;;;;;19.88;12.18;;;;;;;8.06;84.16;93134.81;5103685;28;20022;-77
2024/03/27 03:51:47;;;;;;;21.85;12.45;;;;;;;8.04;84.33;93117.34;5103818;28;20034;-79
2024/03/27 03:54:12;;;;;;;22.08;12.10;;;;;;;8.05;84.12;93131.38;5103205;28;20230;-77
2024/03/27 03:56:38;;;;;;;24.08;14.18;;;;;;;8.06;84.08;93132.97;5103533;28;20106;-77
2024/03/27 03:59:05;;;;;;;24.38;13.82;;;;;;;8.07;84.32;93137.16;5103540;28;20107;-77
2024/03/27 04:01:31;;;;;;;23.30;13.48;;;;;;;8.10;84.28;93130.44;5103490;28;20020;-77
2024/03/27 04:03:56;;;;;;;24.48;13.73;;;;;;;8.07;84.34;93137.16;5103649;28;20024;-78
2024/03/27 04:06:22;;;;;;;21.88;13.77;;;;;;;8.10;84.29;93136.56;5103603;28;20222;-77
2024/03/27 04:08:47;;;;;;;21.77;14.85;;;;;;;8.11;84.26;93119.50;5103447;28;20085;-78
2024/03/27 04:11:12;;;;;;;23.50;14.70;;;;;;;8.11;84.33;93127.47;5103662;28;20023;-78
2024/03/27 04:13:38;;;;;;;26.00;14.40;;;;;;;8.13;84.21;93129.81;5103556;28;20024;-78
2024/03/27 04:16:04;;;;;;;25.50;14.10;;;;;;;8.13;84.22;93124.50;5103451;28;20103;-78
2024/03/27 04:18:29;;;;;;;25.48;13.90;;;;;;;8.11;83.91;93124.81;5103640;28;20215;-78
2024/03/27 04:20:55;;;;;;;26.95;14.32;;;;;;;8.13;83.99;93125.28;5103588;28;20046;-77
2024/03/27 04:23:21;;;;;;;28.10;14.55;;;;;;;8.14;84.08;93121.56;5103672;28;20038;-78
2024/03/27 04:25:47;;;;;;;26.42;13.52;;;;;;;8.13;84.34;93114.66;5103949;28;20027;-78
2024/03/27 04:28:14;;;;;;;18.95;12.32;;;;;;;8.16;84.47;93137.13;5103770;28;20039;-78
2024/03/27 04:30:39;;;;;;;19.77;11.98;;;;;;;8.14;84.21;93129.50;5103395;28;20020;-78
2024/03/27 04:33:04;;;;;;;18.75;11.85;;;;;;;8.15;84.31;93135.59;5103477;28;20081;-78
2024/03/27 04:35:30;;;;;;;19.52;10.40;;;;;;;8.13;84.03;93133.25;5103551;28;20035;-77
2024/03/27 04:37:55;;;;;;;18.02;11.02;;;;;;;8.09;84.01;93132.31;5103584;28;20039;-77
2024/03/27 04:40:21;;;;;;;15.50;8.60;;;;;;;8.10;83.86;93131.25;5103563;28;20248;-77
2024/03/27 04:42:46;;;;;;;13.02;7.47;;;;;;;8.13;83.53;93138.56;5103848;28;20027;-78
2024/03/27 04:45:11;;;;;;;12.07;7.70;;;;;;;8.12;83.50;93129.06;5103592;28;20256;-77
2024/03/27 04:47:37;;;;;;;10.85;6.88;;;;;;;8.15;83.43;93141.69;5103328;28;20027;-77
2024/03/27 04:50:03;;;;;;;9.95;5.93;;;;;;;8.14;83.33;93140.13;5085204;28;20016;-76
2024/03/27 04:52:29;;;;;;;12.63;5.95;;;;;;;8.08;83.06;93137.94;5103155;28;20020;-77
2024/03/27 04:54:54;;;;;;;9.02;5.82;;;;;;;8.11;82.81;93145.28;5103152;28;20027;-79
2024/03/27 04:57:20;;;;;;;8.45;5.53;;;;;;;8.11;82.88;93132.00;5102673;28;20036;-78
2024/03/27 04:59:45;;;;;;;8.82;5.78;;;;;;;8.12;82.80;93136.22;5103062;28;20035;-78
2024/03/27 05:02:11;;;;;;;10.93;6.18;;;;;;;8.14;83.10;93137.47;5103252;28;20024;-78
2024/03/27 05:04:37;;;;;;;9.32;5.93;;;;;;;8.16;82.92;93140.59;5103408;28;20226;-78
2024/03/27 05:07:03;;;;;;;13.45;7.25;;;;;;;8.21;82.82;93153.69;5104472;28;20020;-78
2024/03/27 05:09:30;;;;;;;9.55;6.05;;;;;;;8.23;82.95;93140.88;5107405;28;20089;-78
2024/03/27 05:11:57;;;;;;;10.50;5.30;;;;;;;8.24;82.47;93147.75;5107154;28;20318;-78
2024/03/27 05:14:23;;;;;;;9.45;5.57;;;;;;;8.21;81.91;93135.09;5107312;28;20254;-78
2024/03/27 05:16:48;;;;;;;11.95;5.78;;;;;;;8.20;81.47;93143.38;5107097;28;20074;-78
2024/03/27 05:19:14;;;;;;;9.27;5.75;;;;;;;8.20;81.83;93149.50;5106978;28;20095;-78
2024/03/27 05:21:39;;;;;;;15.90;6.60;;;;;;;8.18;81.76;93143.72;5106928;28;20191;-78
2024/03/27 05:24:05;;;;;;;12.80;6.35;;;;;;;8.22;81.83;93127.91;5106956;28;20028;-78
2024/03/27 05:26:30;;;;;;;10.52;6.80;;;;;;;8.23;81.36;93134.81;5106968;28;20031;-78
2024/03/27 05:28:56;;;;;;;11.48;7.03;;;;;;;8.24;81.67;93134.50;5106803;28;20113;-78
2024/03/27 05:31:22;;;;;;;13.32;7.43;;;;;;;8.31;81.38;93134.00;5106746;28;20087;-78
2024/03/27 05:33:48;;;;;;;13.00;7.45;;;;;;;8.33;81.35;93115.09;5107091;28;20042;-78
2024/03/27 05:36:14;;;;;;;11.98;6.82;;;;;;;8.37;80.60;93124.00;5107135;28;20016;-78
2024/03/27 05:38:40;;;;;;;13.52;7.38;;;;;;;8.40;80.73;93133.97;5088648;28;20050;-79
2024/03/27 05:41:05;;;;;;;14.30;7.90;;;;;;;8.41;80.41;93138.22;5106653;28;20269;-77
2024/03/27 05:43:31;;;;;;;15.27;8.77;;;;;;;8.42;80.58;93135.25;5106600;28;20024;-77
2024/03/27 05:45:56;;;;;;;21.38;9.20;;;;;;;8.44;80.68;93148.22;5106857;28;20318;-77
2024/03/27 05:48:23;;;;;;;9.90;6.43;;;;;;;8.43;80.66;93144.00;5106483;28;20356;-78
2024/03/27 05:50:51;;;;;;;14.98;7.63;;;;;;;8.47;81.07;93131.66;5106335;28;20249;-78
2024/03/27 05:53:17;;;;;;;15.73;8.70;;;;;;;8.57;80.70;93136.63;5106530;28;20019;-78
2024/03/27 05:55:42;;;;;;;14.68;7.65;;;;;;;8.63;80.29;93127.38;5088435;28;20026;-78
2024/03/27 05:58:08;;;;;;;17.35;8.52;;;;;;;8.69;80.18;93138.63;5106476;28;20114;-77
2024/03/27 06:00:34;;;;;;;20.95;9.52;;;;;;;8.69;79.63;93140.47;5106210;28;20243;-78
2024/03/27 06:02:59;;;;;;;13.32;8.18;;;;;;;8.74;79.13;93149.06;5106463;28;20020;-78
2024/03/27 06:05:24;;;;;;;12.90;6.97;;;;;;;8.79;78.18;93150.75;5106416;28;20027;-77
2024/03/27 06:07:50;;;;;;;11.18;6.38;;;;;;;8.82;78.24;93150.91;5106105;28;20036;-77
2024/03/27 06:10:15;;;;;;;10.88;7.45;;;;;;;8.86;78.39;93147.63;5106589;28;20024;-78
2024/03/27 06:12:41;;;;;;;14.25;6.70;;;;;;;8.90;77.68;93149.31;5106026;28;20095;-78
2024/03/27 06:15:07;;;;;;;11.90;7.00;;;;;;;8.93;77.28;93156.63;5105965;28;20036;-77
2024/03/27 06:17:32;;;;;;;10.43;6.43;;;;;;;8.86;77.39;93147.63;5105189;28;20393;-78
2024/03/27 06:19:57;;;;;;;13.98;7.70;;;;;;;8.84;77.54;93153.25;5105811;28;20319;-77
2024/03/27 06:22:23;;;;;;;13.85;7.43;;;;;;;8.86;78.12;93144.97;5087708;28;20099;-78
2024/03/27 06:24:49;;;;;;;16.63;8.43;;;;;;;8.92;79.00;93139.16;5105815;28;20020;-78
2024/03/27 06:27:14;;;;;;;14.60;7.82;;;;;;;8.96;79.06;93145.38;5106011;28;20012;-78
2024/03/27 06:29:40;;;;;;;13.48;7.35;;;;;;;9.04;78.63;93141.91;5105677;28;20034;-79
2024/03/27 06:32:06;;;;;;;15.73;7.93;;;;;;;9.07;77.65;93151.09;5105438;28;20015;-78
2024/03/27 06:34:32;;;;;;;12.88;7.32;;;;;;;9.19;77.28;93134.47;5105526;28;20015;-79
2024/03/27 06:36:57;;;;;;;14.95;7.80;;;;;;;9.25;77.30;93146.47;5105484;28;20057;-78
2024/03/27 06:39:23;;;;;;;13.05;7.95;;;;;;;9.31;77.52;93158.50;5105027;28;20244;-77
2024/03/27 06:41:48;;;;;;;10.95;7.43;;;;;;;9.37;77.79;93146.56;5104064;28;20023;-78
2024/03/27 06:44:15;;;;;;;17.40;7.70;;;;;;;9.43;77.43;93147.16;5105400;28;20016;-78
2024/03/27 06:46:40;;;;;;;14.48;7.68;;;;;;;9.55;76.46;93141.16;5105039;28;20219;-79
2024/03/27 06:49:18;;;;;;;11.88;7.32;;;;;;;9.68;75.31;93149.97;5104866;28;20023;-79
2024/03/27 06:51:51;;;;;;;10.25;6.72;;;;;;;9.81;74.65;93159.56;5104881;28;20039;-79
2024/03/27 06:54:16;;;;;;;;;;;;;;;9.79;74.18;93159.91;5105395;28;20042;-77
2024/03/27 06:56:44;;;;;;;10.55;6.10;;;;;;;9.78;75.12;93162.91;5104446;28;19951;-77
2024/03/27 06:59:09;;;;;;;13.10;7.25;;;;;;;9.86;76.42;93169.25;5104520;28;20326;-77
2024/03/27 07:01:35;;;;;;;12.88;6.95;;;;;;;9.94;76.07;93165.75;5104494;28;20028;-77
2024/03/27 07:04:01;;;;;;;14.75;7.70;;;;;;;10.09;74.74;93172.34;5104797;28;20044;-83
2024/03/27 07:06:27;;;;;;;11.13;6.50;;;;;;;10.25;74.24;93170.66;5104816;28;20016;-82
2024/03/27 07:08:52;;;;;;;10.20;6.47;;;;;;;10.33;72.21;93177.03;5105080;28;20026;-84
2024/03/27 07:11:18;;;;;;;12.25;7.30;;;;;;;10.40;72.00;93171.94;5105300;28;20210;-84
2024/03/27 07:13:44;;;;;;;10.57;6.40;;;;;;;10.48;71.97;93172.97;5104731;28;20062;-83
2024/03/27 07:16:09;;;;;;;10.57;6.85;;;;;;;10.53;71.87;93175.44;5104765;28;20073;-84
2024/03/27 07:18:35;;;;;;;19.02;8.88;;;;;;;10.61;71.90;93175.34;5104730;28;20276;-85
2024/03/27 07:21:01;;;;;;;18.15;9.02;;;;;;;10.50;72.08;93166.22;5104959;28;20330;-85
2024/03/27 07:23:29;;;;;;;23.45;9.75;;;;;;;10.42;72.63;93183.06;5087123;28;20068;-87
2024/03/27 07:25:55;;;;;;;17.60;9.55;;;;;;;10.27;72.93;93179.09;5087441;28;20031;-88
2024/03/27 07:28:20;;;;;;;16.63;9.13;;;;;;;10.26;73.53;93172.22;5086905;28;20283;-84
2024/03/27 07:30:50;;;;;;;12.40;8.63;;;;;;;10.29;73.96;93166.22;5104072;28;20024;-87
2024/03/27 07:33:15;;;;;;;12.52;7.90;;;;;;;10.30;73.67;93172.34;5086398;28;20028;-87
2024/03/27 07:35:40;;;;;;;16.02;9.55;;;;;;;10.39;72.79;93179.16;5086835;28;20042;-87
2024/03/27 07:38:06;;;;;;;16.27;9.07;;;;;;;10.50;72.66;93171.56;5104765;28;20307;-87
2024/03/27 07:40:31;;;;;;;21.75;9.40;;;;;;;10.62;72.93;93178.78;5104738;28;20030;-87
2024/03/27 07:42:57;;;;;;;16.73;8.77;;;;;;;10.73;71.97;93163.94;5086712;28;20023;-87
2024/03/27 07:45:25;;;;;;;14.88;8.73;;;;;;;10.86;71.13;93161.31;5086573;28;20259;-86
2024/03/27 07:47:52;;;;;;;15.77;8.02;;;;;;;11.07;71.25;93161.19;5105142;28;20264;-89
2024/03/27 07:50:18;;;;;;;15.40;8.13;;;;;;;11.21;70.02;93153.66;5105654;28;20043;-88
2024/03/27 07:52:44;;;;;;;19.88;8.30;;;;;;;11.38;69.94;93161.44;5105412;28;20061;-78
2024/03/27 07:55:09;;;;;;;17.05;9.10;;;;;;;11.49;69.99;93150.31;5103867;28;20083;-88
2024/03/27 07:57:35;;;;;;;15.15;8.57;;;;;;;11.58;69.05;93153.63;5104292;28;20269;-87
2024/03/27 08:00:01;;;;;;;13.93;7.90;;;;;;;11.66;67.66;93144.72;5104782;28;20032;-88
2024/03/27 08:02:27;;;;;;;15.63;7.93;;;;;;;11.71;66.78;93141.81;5088880;28;20023;-90
2024/03/27 08:04:52;;;;;;;16.15;7.53;;;;;;;11.67;65.67;93140.94;5105567;28;20085;-88
2024/03/27 08:07:18;;;;;;;12.70;8.65;;;;;;;11.66;66.48;93144.72;5106220;28;20257;-92
2024/03/27 08:09:50;;;;;;;14.95;7.90;;;;;;;11.58;67.63;93154.41;5088730;28;20020;-91
2024/03/27 08:12:27;;;;;;;14.13;7.90;;;;;;;11.62;66.89;93154.50;5088204;28;20219;-92
2024/03/27 08:14:52;;;;;;;20.98;8.10;;;;;;;11.66;66.12;93155.38;5105846;28;20043;-91
2024/03/27 08:17:18;;;;;;;17.30;7.70;;;;;;;11.69;67.02;93153.94;5104484;28;20062;-87
2024/03/27 08:19:44;;;;;;;18.15;8.32;;;;;;;11.74;67.16;93148.38;5086049;28;20028;-82
2024/03/27 08:22:10;;;;;;;15.75;9.10;;;;;;;11.77;67.69;93148.47;5103353;28;20046;-78
2024/03/27 08:24:35;;;;;;;22.48;9.57;;;;;;;11.86;66.71;93148.34;5102863;28;20024;-78
2024/03/27 08:27:02;;;;;;;18.08;9.05;;;;;;;11.91;66.33;93147.38;5102032;28;20035;-80
2024/03/27 08:29:28;;;;;;;22.92;9.23;;;;;;;11.95;66.42;93145.59;5103275;28;20039;-80
2024/03/27 08:31:53;;;;;;;26.42;9.30;;;;;;;11.99;65.23;93146.47;5103553;28;20039;-80
2024/03/27 08:34:19;;;;;;;15.52;9.40;;;;;;;11.98;64.86;93150.22;5103400;28;20022;-79
2024/03/27 08:36:44;;;;;;;17.27;8.90;;;;;;;11.97;66.32;93151.38;5103558;28;20020;-79
2024/03/27 08:39:10;;;;;;;15.82;9.38;;;;;;;11.96;65.24;93153.22;5103065;28;20032;-79
2024/03/27 08:41:37;;;;;;;15.77;9.35;;;;;;;12.00;65.90;93148.00;5103009;28;20217;-80
2024/03/27 08:44:03;;;;;;;19.08;9.30;;;;;;;12.02;66.69;93141.19;5103039;28;20159;-80
2024/03/27 08:46:31;;;;;;;16.80;8.75;;;;;;;12.06;66.11;93135.97;5102823;28;20035;-80
2024/03/27 08:48:57;;;;;;;14.02;8.07;;;;;;;12.05;66.54;93126.41;5103191;28;20027;-80
2024/03/27 08:51:23;;;;;;;16.20;9.20;;;;;;;12.10;65.73;93134.16;5103363;28;20314;-80
2024/03/27 08:53:49;;;;;;;25.55;9.20;;;;;;;12.12;65.89;93129.25;5102997;28;20020;-80
2024/03/27 08:56:15;;;;;;;23.77;8.90;;;;;;;12.14;66.47;93132.38;5102782;28;20098;-80
2024/03/27 08:58:41;;;;;;;22.63;8.60;;;;;;;12.21;66.22;93140.59;5102582;28;20335;-80
2024/03/27 09:01:17;;;;;;;15.85;8.63;;;;;;;12.24;66.11;93126.53;5102484;28;20039;-79
2024/03/27 09:03:43;;;;;;;18.52;8.30;;;;;;;12.28;66.52;93139.22;5102743;28;20024;-80
2024/03/27 09:06:09;;;;;;;15.82;8.10;;;;;;;12.37;67.02;93131.81;5102541;28;20064;-80
2024/03/27 09:08:35;;;;;;;18.08;8.90;;;;;;;12.46;67.33;93132.47;5102720;28;20036;-80
2024/03/27 09:11:01;;;;;;;25.10;8.70;;;;;;;12.56;67.23;93141.88;5101808;28;20035;-80
2024/03/27 09:13:26;;;;;;;20.42;8.45;;;;;;;12.60;67.14;93138.19;5085280;28;20047;-80
2024/03/27 09:15:55;;;;;;;15.27;8.45;;;;;;;12.74;67.47;93134.28;5103007;28;20028;-80
2024/03/27 09:18:21;;;;;;;23.25;8.77;;;;;;;12.83;66.79;93129.56;5103118;28;20253;-80
2024/03/27 09:20:58;;;;;;;18.30;7.82;;;;;;;12.96;66.37;93127.59;5084879;28;20111;-80
2024/03/27 09:23:24;;;;;;;26.20;8.55;;;;;;;13.10;65.48;93138.63;5102611;28;20326;-80
2024/03/27 09:26:00;;;;;;;211.45;19.90;;;;;;;13.26;63.95;93133.25;5102863;28;20024;-80
2024/03/27 09:28:26;;;;;;;46.47;9.52;;;;;;;13.31;63.22;93135.72;5084871;28;20034;-81
2024/03/27 09:30:52;;;;;;;21.98;8.95;;;;;;;13.38;63.64;93122.50;5102804;28;20281;-80
2024/03/27 09:33:17;;;;;;;21.45;7.40;;;;;;;13.54;63.56;93129.72;5103016;28;20023;-80
2024/03/27 09:35:45;;;;;;;18.33;6.50;;;;;;;13.67;63.85;93133.06;5102970;28;20207;-80
2024/03/27 09:38:10;;;;;;;24.10;9.52;;;;;;;13.80;63.58;93150.56;5084727;28;20065;-80
2024/03/27 09:40:46;;;;;;;27.13;8.25;;;;;;;13.95;62.96;93133.66;5102729;28;20036;-80
2024/03/27 09:43:12;;;;;;;15.82;7.70;;;;;;;14.11;62.80;93130.16;5102850;28;20031;-80
2024/03/27 09:45:39;;;;;;;24.35;8.32;;;;;;;14.24;63.06;93139.59;5084867;28;20204;-80
2024/03/27 09:48:06;;;;;;;26.98;6.95;;;;;;;14.35;62.42;93137.91;5103043;28;20047;-82
2024/03/27 09:51:27;;;;;;;21.13;7.15;;;;;;;14.51;60.55;93132.47;5102494;28;20047;-83
2024/03/27 09:53:53;;;;;;;17.15;6.70;;;;;;;14.62;60.56;93136.13;5084875;28;20134;-80
2024/03/27 09:56:19;;;;;;;23.00;6.93;;;;;;;14.74;60.45;93127.13;5105071;28;20020;-80
2024/03/27 09:58:44;;;;;;;20.08;6.80;;;;;;;14.86;60.84;93139.63;5104928;28;20031;-81
2024/03/27 10:01:10;;;;;;;30.15;7.30;;;;;;;15.00;60.16;93126.44;5104623;28;20028;-81
2024/03/27 10:03:35;;;;;;;22.63;6.18;;;;;;;15.13;59.04;93123.56;5104637;28;20016;-81
2024/03/27 10:06:01;;;;;;;23.92;6.40;;;;;;;15.20;57.19;93118.28;5105007;28;20092;-81
2024/03/27 10:08:27;;;;;;;27.83;6.70;;;;;;;15.34;57.77;93125.81;5105031;28;20020;-82
2024/03/27 10:10:56;;;;;;;23.17;6.53;;;;;;;15.48;58.56;93133.31;5104248;28;20329;-82
2024/03/27 10:13:23;;;;;;;19.95;5.80;;;;;;;15.52;57.05;93128.75;5105439;28;20062;-79
2024/03/27 10:15:49;;;;;;;20.35;6.20;;;;;;;15.61;57.08;93113.16;5105449;28;20039;-80
2024/03/27 10:18:15;;;;;;;24.88;6.03;;;;;;;15.67;56.88;93102.88;5106057;28;20020;-80
2024/03/27 10:20:42;;;;;;;28.20;6.20;;;;;;;15.83;56.86;93112.34;5105279;28;20098;-80
2024/03/27 10:23:09;;;;;;;21.58;5.57;;;;;;;15.97;56.28;93111.75;5105369;28;20028;-81
2024/03/27 10:25:39;;;;;;;19.35;6.28;;;;;;;16.11;56.94;93103.09;5105527;28;20012;-81
2024/03/27 10:28:08;;;;;;;26.00;5.88;;;;;;;16.33;56.35;93106.03;5105631;28;20046;-81
2024/03/27 10:30:33;;;;;;;20.30;6.82;;;;;;;16.47;55.01;93110.78;5105219;28;20016;-81
2024/03/27 10:32:59;;;;;;;26.45;5.50;;;;;;;16.58;55.81;93098.97;5105485;28;20019;-81
2024/03/27 10:35:30;;;;;;;20.92;7.57;;;;;;;16.69;54.82;93092.94;5105476;28;20042;-81
2024/03/27 10:37:56;;;;;;;15.23;5.60;;;;;;;16.71;52.91;93102.22;5105587;28;20088;-82
2024/03/27 10:40:23;;;;;;;11.13;5.18;;;;;;;16.80;53.88;93102.66;5105358;28;20027;-82
2024/03/27 10:42:55;;;;;;;29.77;7.47;;;;;;;16.87;53.29;93110.06;5087441;28;20016;-81
2024/03/27 10:45:21;;;;;;;28.80;6.78;;;;;;;16.91;52.55;93110.84;5105262;28;20028;-80
2024/03/27 10:47:47;;;;;;;29.52;10.82;;;;;;;17.00;52.78;93092.50;5105243;28;20346;-80
2024/03/27 10:50:14;;;;;;;24.60;6.32;;;;;;;17.08;51.95;93112.19;5104975;28;20048;-80
2024/03/27 10:52:40;;;;;;;27.00;6.57;;;;;;;17.15;50.38;93124.91;5104971;28;20034;-81
2024/03/27 10:55:07;;;;;;;15.48;5.82;;;;;;;17.20;50.92;93103.03;5104902;28;20024;-80
2024/03/27 10:57:33;;;;;;;20.40;5.85;;;;;;;17.15;50.73;93104.13;5105195;28;20047;-80
2024/03/27 11:00:01;;;;;;;25.55;5.68;;;;;;;17.03;50.63;93109.81;5105113;28;20039;-81
2024/03/27 11:02:26;;;;;;;23.52;5.85;;;;;;;17.13;50.34;93105.66;5104819;28;20061;-81
2024/03/27 11:04:56;;;;;;;22.73;6.45;;;;;;;17.25;50.78;93110.75;5104772;28;20229;-81
2024/03/27 11:07:22;;;;;;;20.02;6.30;;;;;;;17.21;49.55;93115.34;5086668;28;20035;-81
2024/03/27 11:09:49;;;;;;;15.98;6.03;;;;;;;17.33;49.80;93120.44;5104994;28;20020;-82
2024/03/27 11:12:17;;;;;;;17.88;5.43;;;;;;;17.50;50.21;93110.16;5104659;28;20031;-80
2024/03/27 11:14:47;;;;;;;20.60;6.07;;;;;;;17.70;48.93;93103.38;5104578;28;20102;-81
2024/03/27 11:17:13;;;;;;;17.40;6.10;;;;;;;17.81;47.72;93109.59;5104509;28;20020;-81
2024/03/27 11:19:40;;;;;;;23.08;5.78;;;;;;;17.91;47.36;93107.38;5104572;28;20183;-81
2024/03/27 11:22:14;;;;;;;22.30;6.13;;;;;;;17.99;48.02;93101.66;5104651;28;20099;-80
2024/03/27 11:24:40;;;;;;;25.25;6.35;;;;;;;18.12;47.52;93095.94;5104331;28;20020;-80